Time;durP1;ratioP1;P1;durP2;ratioP2;P2;SDS_P1;SDS_P2;PMS_P1;PMS_P2;Temp;Humidity;BMP_temperature;BMP_pressure;BME280_temperature;BME280_humidity;BME280_pressure;Samples;Min_cycle;Max_cycle;Signal;HPM_P1;HPM_P2
2024/04/14 00:01:33;;;;;;;;;;;14.00;99.90;;;;;;5486094;26;20017;-75
2024/04/14 00:03:59;;;;;;;3.53;0.90;;;13.90;99.90;;;;;;5485408;26;19931;-74
2024/04/14 00:06:26;;;;;;;3.22;1.30;;;13.80;99.90;;;;;;5487455;26;20010;-75
2024/04/14 00:08:52;;;;;;;6.43;1.30;;;13.70;99.90;;;;;;5487316;26;20054;-75
2024/04/14 00:11:19;;;;;;;4.47;1.20;;;13.70;99.90;;;;;;5485381;26;20014;-75
2024/04/14 00:13:44;;;;;;;2.70;0.93;;;13.60;99.90;;;;;;5487212;26;20013;-75
2024/04/14 00:16:12;;;;;;;;;;;13.60;99.90;;;;;;5485875;26;20002;-74
2024/04/14 00:18:37;;;;;;;3.58;0.80;;;13.60;99.90;;;;;;5487364;26;20298;-74
2024/04/14 00:21:03;;;;;;;;;;;13.60;99.90;;;;;;5485880;26;20002;-75
2024/04/14 00:23:29;;;;;;;5.07;1.17;;;13.60;99.90;;;;;;5485213;26;19924;-73
2024/04/14 00:25:54;;;;;;;;;;;13.60;99.90;;;;;;5485877;26;19999;-72
2024/04/14 00:28:20;;;;;;;2.17;0.80;;;13.60;99.90;;;;;;5487150;26;19935;-74
2024/04/14 00:30:45;;;;;;;;;;;13.60;99.90;;;;;;5487602;26;20013;-74
2024/04/14 00:33:11;;;;;;;7.40;1.25;;;13.60;99.90;;;;;;5487215;26;19934;-73
2024/04/14 00:35:37;;;;;;;;;;;13.60;99.90;;;;;;5484774;26;20450;-74
2024/04/14 00:38:03;;;;;;;4.97;1.00;;;13.60;99.90;;;;;;5487051;26;20357;-74
2024/04/14 00:40:28;;;;;;;;;;;13.60;99.90;;;;;;5485536;26;20009;-73
2024/04/14 00:42:57;;;;;;;7.05;1.38;;;13.70;99.90;;;;;;5487138;26;19924;-75
2024/04/14 00:45:25;;;;;;;5.90;1.60;;;13.60;99.90;;;;;;5485295;26;20072;-74
2024/04/14 00:47:51;;;;;;;3.95;1.90;;;13.60;99.90;;;;;;5485184;26;20662;-75
2024/04/14 00:50:17;;;;;;;;;;;13.60;99.90;;;;;;5485564;26;20041;-74
2024/04/14 00:52:43;;;;;;;2.65;1.02;;;13.70;99.90;;;;;;5486756;26;19931;-74
2024/04/14 00:55:09;;;;;;;;;;;13.60;99.90;;;;;;5487296;26;20002;-74
2024/04/14 00:57:35;;;;;;;3.38;0.80;;;13.70;99.90;;;;;;5484916;26;19924;-75
2024/04/14 01:00:01;;;;;;;1.70;0.60;;;13.70;99.90;;;;;;5486694;26;20515;-75
2024/04/14 01:02:27;;;;;;;4.75;1.40;;;13.80;99.90;;;;;;5484751;26;20347;-75
2024/04/14 01:04:53;;;;;;;;;;;13.90;99.90;;;;;;5487154;26;20030;-74
2024/04/14 01:07:19;;;;;;;1.67;0.75;;;14.00;99.90;;;;;;5484625;26;19924;-75
2024/04/14 01:09:45;;;;;;;4.65;1.20;;;14.10;99.90;;;;;;5484531;26;20022;-75
2024/04/14 01:12:10;;;;;;;;;;;14.20;99.90;;;;;;5487130;26;20002;-74
2024/04/14 01:14:36;;;;;;;2.75;1.15;;;14.30;99.90;;;;;;5486475;26;20004;-75
2024/04/14 01:17:02;;;;;;;;;;;14.30;99.90;;;;;;5486989;26;20017;-74
2024/04/14 01:19:28;;;;;;;3.38;1.15;;;14.40;99.90;;;;;;5486751;26;19930;-75
2024/04/14 01:21:54;;;;;;;;;;;14.40;99.90;;;;;;5487226;26;20002;-76
2024/04/14 01:24:19;;;;;;;2.20;0.90;;;14.30;99.90;;;;;;5484293;26;19971;-75
2024/04/14 01:26:45;;;;;;;;;;;14.30;99.90;;;;;;5486913;26;20017;-74
2024/04/14 01:29:11;;;;;;;3.10;1.10;;;14.20;99.90;;;;;;5484457;26;19956;-75
2024/04/14 01:31:36;;;;;;;;;;;14.20;99.90;;;;;;5484925;26;20017;-75
2024/04/14 01:34:02;;;;;;;;;;;14.10;99.90;;;;;;5484967;26;19931;-74
2024/04/14 01:36:27;;;;;;;;;;;14.10;99.90;;;;;;5484412;26;19924;-75
2024/04/14 01:38:53;;;;;;;;;;;14.00;99.90;;;;;;5486385;26;19931;-75
2024/04/14 01:41:19;;;;;;;;;;;14.00;99.90;;;;;;5484885;26;19924;-75
2024/04/14 01:43:44;;;;;;;;;;;13.90;99.90;;;;;;5484719;26;19924;-74
2024/04/14 01:46:09;;;;;;;;;;;13.90;99.90;;;;;;5486550;26;19924;-74
2024/04/14 01:48:35;;;;;;;;;;;13.90;99.90;;;;;;5486652;26;19946;-75
2024/04/14 01:51:00;;;;;;;;;;;13.80;99.90;;;;;;5484546;26;20331;-75
2024/04/14 01:53:26;;;;;;;;;;;13.80;99.90;;;;;;5486167;26;20393;-74
2024/04/14 01:55:51;;;;;;;;;;;13.70;99.90;;;;;;5486475;26;20380;-75
2024/04/14 01:58:17;;;;;;;;;;;13.70;99.90;;;;;;5484929;26;19960;-75
2024/04/14 02:00:42;;;;;;;;;;;13.70;99.90;;;;;;5486510;26;19992;-74
2024/04/14 02:03:08;;;;;;;;;;;13.70;99.90;;;;;;5484872;26;19992;-75
2024/04/14 02:05:34;;;;;;;;;;;13.70;99.90;;;;;;5484448;26;19931;-75
2024/04/14 02:07:59;;;;;;;;;;;13.70;99.90;;;;;;5484686;26;20579;-75
2024/04/14 02:10:25;;;;;;;;;;;13.70;99.90;;;;;;5484775;26;19923;-74
2024/04/14 02:12:50;;;;;;;;;;;13.70;99.90;;;;;;5486332;26;19924;-75
2024/04/14 02:15:16;;;;;;;;;;;13.70;99.90;;;;;;5486179;26;19945;-74
2024/04/14 02:17:41;;;;;;;;;;;13.80;99.90;;;;;;5486023;26;19924;-74
2024/04/14 02:20:10;;;;;;;;;;;13.80;99.90;;;;;;5484153;26;19973;-74
2024/04/14 02:22:36;;;;;;;;;;;13.70;99.90;;;;;;5483963;26;19924;-73
2024/04/14 02:25:01;;;;;;;;;;;13.70;99.90;;;;;;5485981;26;19931;-74
2024/04/14 02:27:27;;;;;;;;;;;13.70;99.90;;;;;;5483938;26;19961;-74
2024/04/14 02:29:52;;;;;;;;;;;13.70;99.90;;;;;;5483718;26;19928;-74
2024/04/14 02:32:18;;;;;;;;;;;13.60;99.90;;;;;;5483734;26;19965;-73
2024/04/14 02:34:43;;;;;;;;;;;13.60;99.90;;;;;;5483588;26;19961;-74
2024/04/14 02:37:09;;;;;;;;;;;13.50;99.90;;;;;;5483738;26;19931;-74
2024/04/14 02:39:34;;;;;;;;;;;13.50;99.90;;;;;;5485519;26;19939;-75
2024/04/14 02:42:00;;;;;;;;;;;13.50;99.90;;;;;;5485614;26;20002;-75
2024/04/14 02:44:25;;;;;;;;;;;13.50;99.90;;;;;;5485234;26;20373;-74
2024/04/14 02:46:51;;;;;;;;;;;13.50;99.90;;;;;;5485552;26;19924;-74
2024/04/14 02:49:16;;;;;;;;;;;13.50;99.90;;;;;;5485583;26;19924;-75
2024/04/14 02:51:43;;;;;;;;;;;13.50;99.90;;;;;;5483493;26;19934;-75
2024/04/14 02:54:08;;;;;;;;;;;13.40;99.90;;;;;;5483767;26;19932;-72
2024/04/14 02:56:34;;;;;;;;;;;13.40;99.90;;;;;;5485363;26;19993;-74
2024/04/14 02:58:59;;;;;;;;;;;13.40;99.90;;;;;;5486515;26;19924;-74
2024/04/14 03:01:25;;;;;;;;;;;13.30;99.90;;;;;;5488976;26;19934;-74
2024/04/14 03:03:50;;;;;;;;;;;13.30;99.90;;;;;;5488899;26;20450;-75
2024/04/14 03:06:16;;;;;;;;;;;13.20;99.90;;;;;;5488796;26;19935;-75
2024/04/14 03:08:42;;;;;;;;;;;13.10;99.90;;;;;;5488895;26;19923;-74
2024/04/14 03:11:08;;;;;;;;;;;13.10;99.90;;;;;;5488660;26;19952;-74
2024/04/14 03:13:33;;;;;;;;;;;13.00;99.90;;;;;;5486918;26;19924;-74
2024/04/14 03:16:02;;;;;;;;;;;13.00;99.90;;;;;;5488987;26;19931;-74
2024/04/14 03:18:28;;;;;;;;;;;13.00;99.90;;;;;;5488774;26;19936;-73
2024/04/14 03:20:57;;;;;;;;;;;12.90;99.90;;;;;;5486702;26;19924;-74
2024/04/14 03:23:23;;;;;;;;;;;12.90;99.90;;;;;;5486828;26;19924;-74
2024/04/14 03:25:49;;;;;;;;;;;12.90;99.90;;;;;;5488708;26;19992;-74
2024/04/14 03:28:15;;;;;;;;;;;12.80;99.90;;;;;;5486681;26;19931;-75
2024/04/14 03:30:40;;;;;;;;;;;12.80;99.90;;;;;;5488826;26;20373;-74
2024/04/14 03:33:06;;;;;;;;;;;12.80;99.90;;;;;;5488620;26;19931;-74
2024/04/14 03:35:31;;;;;;;;;;;12.80;99.90;;;;;;5486490;26;19930;-74
2024/04/14 03:37:57;;;;;;;;;;;12.80;99.90;;;;;;5486824;26;19932;-75
2024/04/14 03:40:23;;;;;;;;;;;12.80;99.90;;;;;;5486696;26;20369;-73
2024/04/14 03:42:49;;;;;;;;;;;12.70;99.90;;;;;;5486486;26;19923;-74
2024/04/14 03:45:18;;;;;;;;;;;12.80;99.90;;;;;;5486567;26;19924;-74
2024/04/14 03:47:44;;;;;;;;;;;12.80;99.90;;;;;;5486554;26;19924;-75
2024/04/14 03:50:09;;;;;;;;;;;12.80;99.90;;;;;;5488300;26;20260;-74
2024/04/14 03:52:35;;;;;;;;;;;12.80;99.90;;;;;;5486396;26;20365;-75
2024/04/14 03:55:00;;;;;;;;;;;12.80;99.90;;;;;;5486256;26;19930;-75
2024/04/14 03:57:26;;;;;;;;;;;12.90;99.90;;;;;;5488395;26;19924;-75
2024/04/14 03:59:51;;;;;;;;;;;12.90;99.90;;;;;;5486371;26;20628;-74
2024/04/14 04:02:17;;;;;;;;;;;13.00;99.90;;;;;;5488156;26;20368;-74
2024/04/14 04:04:42;;;;;;;;;;;13.00;99.90;;;;;;5486031;26;19963;-74
2024/04/14 04:07:08;;;;;;;;;;;13.00;99.90;;;;;;5488013;26;20295;-75
2024/04/14 04:09:33;;;;;;;;;;;13.10;99.90;;;;;;5485982;26;19955;-75
2024/04/14 04:11:59;;;;;;;;;;;13.10;99.90;;;;;;5484859;26;19946;-74
2024/04/14 04:14:24;;;;;;;;;;;13.10;99.90;;;;;;5487778;26;20290;-74
2024/04/14 04:16:50;;;;;;;;;;;13.20;99.90;;;;;;5488008;26;20352;-74
2024/04/14 04:19:15;;;;;;;;;;;13.30;99.90;;;;;;5486137;26;19987;-75
2024/04/14 04:21:41;;;;;;;;;;;13.30;99.90;;;;;;5486165;26;19931;-75
2024/04/14 04:24:06;;;;;;;;;;;13.40;99.90;;;;;;5487469;26;19931;-74
2024/04/14 04:26:32;;;;;;;;;;;13.60;99.90;;;;;;5487575;26;19930;-75
2024/04/14 04:28:58;;;;;;;;;;;13.70;99.90;;;;;;5487812;26;19996;-74
2024/04/14 04:31:23;;;;;;;;;;;13.80;99.90;;;;;;5485880;26;20245;-74
2024/04/14 04:33:49;;;;;;;;;;;13.90;99.90;;;;;;5487270;26;20373;-75
2024/04/14 04:36:17;;;;;;;;;;;14.00;99.90;;;;;;5485672;26;19924;-74
2024/04/14 04:38:46;;;;;;;;;;;14.10;99.90;;;;;;5487752;26;19924;-75
2024/04/14 04:41:11;;;;;;;;;;;14.30;99.90;;;;;;5485671;26;19924;-75
2024/04/14 04:43:38;;;;;;;;;;;14.40;99.90;;;;;;5487568;26;19927;-72
2024/04/14 04:46:03;;;;;;;;;;;14.60;99.90;;;;;;5487478;26;20064;-75
2024/04/14 04:48:29;;;;;;;;;;;14.60;99.90;;;;;;5487313;26;19936;-75
2024/04/14 04:50:55;;;;;;;;;;;14.70;99.90;;;;;;5485638;26;19992;-75
2024/04/14 04:53:21;;;;;;;;;;;14.80;99.90;;;;;;5487033;26;19924;-74
2024/04/14 04:55:47;;;;;;;;;;;14.90;99.90;;;;;;5485363;26;20428;-75
2024/04/14 04:58:13;;;;;;;;;;;14.90;99.90;;;;;;5485267;26;19939;-74
2024/04/14 05:00:39;;;;;;;;;;;15.00;99.90;;;;;;5487338;26;20266;-73
2024/04/14 05:03:04;;;;;;;;;;;15.00;99.90;;;;;;5485347;26;19932;-75
2024/04/14 05:05:30;;;;;;;;;;;15.10;99.90;;;;;;5485176;26;19931;-74
2024/04/14 05:07:55;;;;;;;;;;;15.20;99.90;;;;;;5487139;26;19992;-74
2024/04/14 05:10:21;;;;;;;;;;;15.20;99.90;;;;;;5487025;26;20311;-73
2024/04/14 05:12:46;;;;;;;;;;;15.30;99.90;;;;;;5483829;26;20309;-72
2024/04/14 05:15:12;;;;;;;;;;;15.40;99.90;;;;;;5487148;26;19924;-74
2024/04/14 05:17:37;;;;;;;;;;;15.50;99.90;;;;;;5486432;26;19924;-73
2024/04/14 05:20:03;;;;;;;;;;;15.60;99.90;;;;;;5486905;26;20246;-73
2024/04/14 05:22:29;;;;;;;;;;;15.70;99.90;;;;;;5486298;26;19951;-73
2024/04/14 05:24:55;;;;;;;;;;;15.80;99.90;;;;;;5484891;26;19924;-73
2024/04/14 05:27:21;;;;;;;;;;;15.90;99.90;;;;;;5486531;26;19924;-74
2024/04/14 05:29:47;;;;;;;;;;;16.00;99.90;;;;;;5486078;26;20429;-73
2024/04/14 05:32:13;;;;;;;;;;;16.20;99.90;;;;;;5484175;26;19928;-73
2024/04/14 05:34:38;;;;;;;;;;;16.20;99.90;;;;;;5484683;26;19936;-73
2024/04/14 05:37:04;;;;;;;;;;;16.40;99.90;;;;;;5486079;26;19935;-73
2024/04/14 05:39:31;;;;;;;;;;;16.60;99.90;;;;;;5484508;26;20261;-73
2024/04/14 05:41:56;;;;;;;;;;;17.30;99.90;;;;;;5486474;26;19930;-73
2024/04/14 05:44:24;;;;;;;;;;;18.90;99.90;;;;;;5484649;26;19936;-73
2024/04/14 05:46:50;;;;;;;;;;;20.60;97.90;;;;;;5484427;26;20032;-73
2024/04/14 05:49:16;;;;;;;;;;;22.10;92.10;;;;;;5485196;26;20424;-74
2024/04/14 05:51:42;;;;;;;;;;;23.10;82.10;;;;;;5484448;26;20766;-73
2024/04/14 05:54:07;;;;;;;;;;;23.80;74.40;;;;;;5482216;26;19924;-73
2024/04/14 05:56:33;;;;;;;;;;;24.30;69.80;;;;;;5481674;26;20000;-74
2024/04/14 05:58:59;;;;;;;;;;;24.40;67.60;;;;;;5482039;26;19930;-73
2024/04/14 06:01:25;;;;;;;;;;;24.60;66.80;;;;;;5481199;26;19923;-73
2024/04/14 06:03:50;;;;;;;;;;;24.60;65.60;;;;;;5483317;26;19924;-73
2024/04/14 06:06:17;;;;;;;;;;;24.40;65.00;;;;;;5485100;26;19931;-74
2024/04/14 06:08:42;;;;;;;;;;;24.50;65.70;;;;;;5482087;26;19948;-73
2024/04/14 06:11:08;;;;;;;;;;;24.50;65.10;;;;;;5484620;26;19931;-73
2024/04/14 06:13:34;;;;;;;;;;;24.60;63.90;;;;;;5482189;26;19932;-73
2024/04/14 06:16:00;;;;;;;;;;;24.50;63.20;;;;;;5484648;26;19924;-74
2024/04/14 06:18:26;;;;;;;;;;;24.40;63.50;;;;;;5481857;26;19931;-73
2024/04/14 06:20:51;;;;;;;;;;;24.50;62.40;;;;;;5480631;26;19924;-73
2024/04/14 06:23:17;;;;;;;;;;;24.70;60.50;;;;;;5480273;26;20341;-74
2024/04/14 06:25:43;;;;;;;;;;;24.90;59.50;;;;;;5481911;26;19931;-74
2024/04/14 06:28:08;;;;;;;;;;;25.10;58.40;;;;;;5481282;26;19924;-74
2024/04/14 06:30:34;;;;;;;;;;;25.40;57.00;;;;;;5483813;26;19924;-74
2024/04/14 06:33:00;;;;;;;;;;;25.50;58.40;;;;;;5483072;26;19959;-73
2024/04/14 06:35:26;;;;;;;;;;;25.60;57.60;;;;;;5485587;26;19931;-71
2024/04/14 06:37:51;;;;;;;;;;;25.90;55.70;;;;;;5488586;26;19932;-74
2024/04/14 06:40:17;;;;;;;;;;;26.00;53.90;;;;;;5487152;26;19924;-76
2024/04/14 06:42:42;;;;;;;;;;;26.30;54.70;;;;;;5488921;26;19928;-75
2024/04/14 06:45:08;;;;;;;;;;;26.70;53.80;;;;;;5488770;26;19965;-74
2024/04/14 06:47:33;;;;;;;;;;;27.00;52.30;;;;;;5486849;26;19965;-74
2024/04/14 06:49:59;;;;;;;;;;;27.30;51.40;;;;;;5487220;26;19935;-74
2024/04/14 06:52:24;;;;;;;;;;;27.70;50.30;;;;;;5486937;26;20371;-75
2024/04/14 06:54:50;;;;;;;;;;;27.90;48.10;;;;;;5485962;26;20264;-75
2024/04/14 06:57:16;;;;;;;;;;;28.00;47.80;;;;;;5488628;26;20368;-75
2024/04/14 06:59:42;;;;;;;;;;;28.40;47.40;;;;;;5486218;26;19923;-75
2024/04/14 07:02:07;;;;;;;;;;;28.80;44.90;;;;;;5488819;26;19927;-75
2024/04/14 07:04:33;;;;;;;;;;;29.20;44.20;;;;;;5486926;26;19932;-75
2024/04/14 07:07:00;;;;;;;;;;;29.30;42.70;;;;;;5488830;26;19928;-75
2024/04/14 07:09:25;;;;;;;;;;;29.40;42.10;;;;;;5489492;26;20264;-75
2024/04/14 07:11:52;;;;;;;;;;;29.60;42.10;;;;;;5489098;26;19948;-75
2024/04/14 07:14:17;;;;;;;;;;;30.00;40.20;;;;;;5487090;26;19930;-76
2024/04/14 07:16:43;;;;;;;;;;;30.10;40.50;;;;;;5488733;26;19948;-75
2024/04/14 07:19:11;;;;;;;;;;;30.20;40.60;;;;;;5488695;26;19923;-74
2024/04/14 07:21:37;;;;;;;;;;;30.40;39.10;;;;;;5488612;26;19932;-76
2024/04/14 07:24:02;;;;;;;;;;;30.60;38.50;;;;;;5488390;26;19955;-75
2024/04/14 07:26:28;;;;;;;;;;;30.80;38.70;;;;;;5485739;26;20337;-75
2024/04/14 07:28:53;;;;;;;;;;;31.20;37.90;;;;;;5488472;26;19976;-75
2024/04/14 07:31:19;;;;;;;;;;;31.40;37.30;;;;;;5488632;26;20326;-75
2024/04/14 07:33:44;;;;;;;;;;;31.50;36.80;;;;;;5488506;26;19999;-76
2024/04/14 07:36:10;;;;;;;;;;;31.60;36.50;;;;;;5488479;26;19965;-75
2024/04/14 07:38:35;;;;;;;;;;;31.90;36.70;;;;;;5488596;26;19988;-75
2024/04/14 07:41:01;;;;;;;;;;;31.80;37.00;;;;;;5488593;26;19924;-76
2024/04/14 07:43:27;;;;;;;;;;;32.00;36.30;;;;;;5486706;26;19927;-75
2024/04/14 07:45:52;;;;;;;;;;;32.20;36.30;;;;;;5488425;26;19955;-74
2024/04/14 07:48:18;;;;;;;;;;;32.40;35.10;;;;;;5487742;26;19959;-74
2024/04/14 07:50:44;;;;;;;;;;;32.80;34.70;;;;;;5487858;26;19973;-75
2024/04/14 07:53:09;;;;;;;;;;;32.90;34.10;;;;;;5488135;26;19947;-76
2024/04/14 07:55:35;;;;;;;;;;;33.20;32.80;;;;;;5488201;26;20355;-75
2024/04/14 07:58:01;;;;;;;;;;;33.10;32.60;;;;;;5487870;26;19931;-76
2024/04/14 08:00:26;;;;;;;;;;;33.60;32.50;;;;;;5485934;26;19996;-74
2024/04/14 08:02:52;;;;;;;;;;;33.60;31.30;;;;;;5487637;26;19924;-75
2024/04/14 08:05:17;;;;;;;;;;;33.90;31.00;;;;;;5486022;26;19935;-74
2024/04/14 08:07:43;;;;;;;;;;;34.10;29.90;;;;;;5487961;26;20313;-74
2024/04/14 08:10:08;;;;;;;;;;;34.20;30.60;;;;;;5485675;26;20351;-76
2024/04/14 08:12:35;;;;;;;;;;;34.20;30.00;;;;;;5487871;26;20408;-75
2024/04/14 08:15:00;;;;;;;;;;;34.40;29.70;;;;;;5480763;26;19924;-74
2024/04/14 08:17:26;;;;;;;;;;;34.70;29.50;;;;;;5487363;26;19960;-76
2024/04/14 08:19:52;;;;;;;;;;;35.10;28.90;;;;;;5488010;26;19924;-75
2024/04/14 08:22:17;;;;;;;;;;;35.20;28.40;;;;;;5487864;26;19923;-75
2024/04/14 08:24:43;;;;;;;;;;;35.50;28.70;;;;;;5487554;26;20378;-75
2024/04/14 08:27:09;;;;;;;;;;;35.40;28.40;;;;;;5486061;26;20353;-75
2024/04/14 08:29:34;;;;;;;;;;;35.60;28.00;;;;;;5485319;26;19928;-75
2024/04/14 08:32:00;;;;;;;;;;;35.90;27.40;;;;;;5487545;26;19934;-76
2024/04/14 08:34:26;;;;;;;;;;;35.50;27.80;;;;;;5486459;26;19924;-75
2024/04/14 08:36:51;;;;;;;;;;;35.70;28.10;;;;;;5484655;26;20301;-75
2024/04/14 08:39:17;;;;;;;;;;;35.70;27.60;;;;;;5485665;26;19924;-75
2024/04/14 08:41:43;;;;;;;;;;;35.70;27.60;;;;;;5483276;26;20263;-75
2024/04/14 08:44:09;;;;;;;;;;;35.50;27.70;;;;;;5485188;26;19931;-74
2024/04/14 08:46:36;;;;;;;;;;;35.30;27.30;;;;;;5485333;26;19923;-74
2024/04/14 08:49:02;;;;;;;;;;;35.00;27.90;;;;;;5486910;26;19924;-75
2024/04/14 08:51:28;;;;;;;;;;;34.90;27.70;;;;;;5469508;26;20349;-75
2024/04/14 08:53:55;;;;;;;;;;;34.90;28.00;;;;;;5447980;26;20001;-75
2024/04/14 08:56:21;;;;;;;;;;;34.80;28.70;;;;;;5447287;26;20453;-75
2024/04/14 08:58:47;;;;;;;;;;;34.60;28.10;;;;;;5448119;26;19924;-75
2024/04/14 09:01:13;;;;;;;;;;;34.10;28.90;;;;;;5448487;26;19924;-76
2024/04/14 09:03:39;;;;;;;;;;;33.80;29.00;;;;;;5445992;26;20323;-75
2024/04/14 09:06:05;;;;;;;;;;;33.60;29.10;;;;;;5447683;26;19966;-75
2024/04/14 09:08:31;;;;;;;;;;;33.00;30.00;;;;;;5447792;26;19929;-76
2024/04/14 09:10:57;;;;;;;;;;;32.70;30.00;;;;;;5447677;26;19924;-75
2024/04/14 09:13:26;;;;;;;;;;;32.40;31.40;;;;;;5445877;26;19993;-76
2024/04/14 09:15:54;;;;;;;;;;;31.90;30.90;;;;;;5445844;26;20368;-76
2024/04/14 09:18:19;;;;;;;;;;;31.90;32.50;;;;;;5448467;26;20014;-75
2024/04/14 09:20:45;;;;;;;;;;;31.60;32.40;;;;;;5447081;26;19924;-73
2024/04/14 09:23:10;;;;;;;;;;;31.70;32.80;;;;;;5447738;26;19924;-75
2024/04/14 09:25:36;;;;;;;;;;;31.60;32.90;;;;;;5445764;26;19956;-76
2024/04/14 09:28:07;;;;;;;;;;;31.40;32.70;;;;;;5448241;26;19930;-75
2024/04/14 09:30:33;;;;;;;;;;;31.60;32.80;;;;;;5446162;26;19924;-74
2024/04/14 09:32:58;;;;;;;;;;;31.70;32.90;;;;;;5447983;26;19924;-75
2024/04/14 09:35:25;;;;;;;;;;;31.40;32.70;;;;;;5447240;26;19924;-75
2024/04/14 09:37:51;;;;;;;;;;;31.30;32.90;;;;;;5446273;26;20444;-75
2024/04/14 09:40:18;;;;;;;;;;;31.20;33.70;;;;;;5447321;26;19924;-75
2024/04/14 09:42:45;;;;;;;;;;;31.20;33.70;;;;;;5447833;26;19936;-75
2024/04/14 09:45:10;;;;;;;;;;;31.30;34.40;;;;;;5447427;26;20417;-76
2024/04/14 09:47:37;;;;;;;;;;;31.60;34.40;;;;;;5447729;26;19932;-74
2024/04/14 09:50:05;;;;;;;;;;;31.50;34.20;;;;;;5447609;26;19932;-74
2024/04/14 09:52:32;;;;;;;;;;;32.00;33.40;;;;;;5447443;26;19924;-76
2024/04/14 09:54:58;;;;;;;;;;;32.40;32.20;;;;;;5447877;26;19954;-75
2024/04/14 09:57:23;;;;;;;;;;;32.50;31.30;;;;;;5445921;26;19924;-75
2024/04/14 09:59:49;;;;;;;;;;;32.70;31.20;;;;;;5448071;26;20364;-75
2024/04/14 10:02:16;;;;;;;;;;;33.10;30.10;;;;;;5444369;26;19924;-75
2024/04/14 10:04:46;;;;;;;;;;;33.50;29.90;;;;;;5445040;26;19952;-75
2024/04/14 10:07:12;;;;;;;;;;;33.60;29.90;;;;;;5445788;26;19932;-74
2024/04/14 10:09:38;;;;;;;;;;;33.80;29.30;;;;;;5445925;26;19931;-74
2024/04/14 10:12:03;;;;;;;;;;;34.00;28.40;;;;;;5445983;26;19925;-75
2024/04/14 10:14:39;;;;;;;;;;;34.10;28.80;;;;;;5447646;26;19924;-74
2024/04/14 10:17:05;;;;;;;;;;;34.00;29.60;;;;;;5449591;26;19956;-75
2024/04/14 10:19:34;;;;;;;;;;;34.10;28.30;;;;;;5447953;26;19924;-75
2024/04/14 10:22:00;;;;;;;;;;;34.20;27.60;;;;;;5447306;26;19932;-75
2024/04/14 10:24:26;;;;;;;;;;;34.20;28.20;;;;;;5449564;26;19924;-75
2024/04/14 10:26:51;;;;;;;;;;;34.30;27.10;;;;;;5449551;26;19924;-75
2024/04/14 10:29:19;;;;;;;;;;;34.20;27.60;;;;;;5447237;26;19992;-75
2024/04/14 10:31:51;;;;;;;;;;;33.90;26.60;;;;;;5448666;26;19925;-73
2024/04/14 10:34:20;;;;;;;;;;;33.30;27.30;;;;;;5449262;26;19925;-75
2024/04/14 10:36:54;;;;;;;;;;;32.60;27.40;;;;;;5449883;26;19931;-75
2024/04/14 10:39:20;;;;;;;;;;;31.90;28.30;;;;;;5449571;26;19931;-75
2024/04/14 10:41:45;;;;;;;;;;;31.30;29.40;;;;;;5448808;26;19924;-76
2024/04/14 10:44:17;;;;;;;;;;;30.80;29.80;;;;;;5447495;26;19924;-74
2024/04/14 10:46:44;;;;;;;;;;;30.30;30.80;;;;;;5449527;26;20403;-74
2024/04/14 10:49:10;;;;;;;;;;;30.10;31.80;;;;;;5447358;26;19979;-75
2024/04/14 10:51:36;;;;;;;;;;;30.00;33.20;;;;;;5448901;26;19925;-75
2024/04/14 10:54:02;;;;;;;;;;;30.00;31.00;;;;;;5449076;26;20394;-75
2024/04/14 10:56:28;;;;;;;;;;;29.80;30.60;;;;;;5447116;26;19925;-75
2024/04/14 10:58:53;;;;;;;;;;;29.70;31.40;;;;;;5448976;26;19954;-75
2024/04/14 11:01:19;;;;;;;;;;;29.40;30.40;;;;;;5448816;26;19997;-74
2024/04/14 11:03:45;;;;;;;;;;;29.30;30.60;;;;;;5448665;26;19930;-75
2024/04/14 11:06:10;;;;;;;;;;;29.20;31.00;;;;;;5448756;26;19969;-75
2024/04/14 11:08:38;;;;;;;;;;;29.30;30.80;;;;;;5449042;26;19925;-74
2024/04/14 11:11:04;;;;;;;;;;;29.20;30.80;;;;;;5448982;26;19931;-74
2024/04/14 11:13:30;;;;;;;;;;;29.20;31.40;;;;;;5446460;26;19956;-74
2024/04/14 11:15:56;;;;;;;;;;;29.10;30.80;;;;;;5448568;26;19924;-74
2024/04/14 11:18:24;;;;;;;;;;;29.00;31.30;;;;;;5449256;26;19934;-75
2024/04/14 11:20:50;;;;;;;;;;;28.90;29.80;;;;;;5450712;26;20451;-75
2024/04/14 11:23:16;;;;;;;;;;;28.90;29.00;;;;;;5452151;26;19936;-74
2024/04/14 11:25:41;;;;;;;;;;;28.90;29.90;;;;;;5450427;26;19924;-74
2024/04/14 11:28:07;;;;;;;;;;;28.80;28.70;;;;;;5450775;26;19956;-75
2024/04/14 11:30:32;;;;;;;;;;;28.80;27.60;;;;;;5452105;26;20357;-75
2024/04/14 11:32:58;;;;;;;;;;;28.80;28.30;;;;;;5452193;26;19932;-75
2024/04/14 11:35:25;;;;;;;;;;;28.80;29.30;;;;;;5452330;26;20350;-75
2024/04/14 11:37:53;;;;;;;;;;;28.80;28.60;;;;;;5452093;26;19924;-75
2024/04/14 11:40:21;;;;;;;;;;;28.80;29.10;;;;;;5450252;26;20284;-76
2024/04/14 11:42:47;;;;;;;;;;;28.80;30.00;;;;;;5451948;26;19964;-74
2024/04/14 11:45:12;;;;;;;;;;;28.80;30.00;;;;;;5452288;26;20376;-75
2024/04/14 11:47:38;;;;;;;;;;;28.90;29.80;;;;;;5451771;26;19924;-74
2024/04/14 11:50:04;;;;;;;;;;;28.90;29.70;;;;;;5452071;26;19955;-75
2024/04/14 11:52:29;;;;;;;;;;;28.90;29.80;;;;;;5449808;26;19924;-75
2024/04/14 11:54:55;;;;;;;;;;;28.90;29.70;;;;;;5451388;26;20843;-75
2024/04/14 11:57:22;;;;;;;;;;;28.90;30.30;;;;;;5452093;26;19993;-75
2024/04/14 11:59:48;;;;;;;;;;;28.90;30.50;;;;;;5451718;26;19924;-75
2024/04/14 12:02:13;;;;;;;;;;;28.90;29.90;;;;;;5451637;26;20014;-75
2024/04/14 12:04:39;;;;;;;;;;;28.80;30.90;;;;;;5451634;26;19930;-75
2024/04/14 12:07:04;;;;;;;;;;;28.70;31.00;;;;;;5451491;26;20265;-75
2024/04/14 12:09:30;;;;;;;;;;;28.70;30.80;;;;;;5451519;26;19932;-76
2024/04/14 12:11:55;;;;;;;;;;;28.70;30.10;;;;;;5451706;26;19925;-74
2024/04/14 12:14:21;;;;;;;;;;;28.70;30.20;;;;;;5451624;26;19932;-75
2024/04/14 12:16:47;;;;;;;;;;;28.70;31.00;;;;;;5451494;26;19932;-75
2024/04/14 12:19:13;;;;;;;;;;;28.70;30.60;;;;;;5449906;26;19924;-75
2024/04/14 12:21:38;;;;;;;;;;;28.90;31.40;;;;;;5449709;26;20242;-75
2024/04/14 12:24:05;;;;;;;;;;;28.90;30.60;;;;;;5451005;26;19961;-75
2024/04/14 12:26:31;;;;;;;;;;;28.90;30.10;;;;;;5449466;26;20357;-75
2024/04/14 12:28:57;;;;;;;;;;;28.90;30.50;;;;;;5449403;26;19935;-75
2024/04/14 12:31:23;;;;;;;;;;;28.90;30.20;;;;;;5448112;26;20273;-75
2024/04/14 12:33:48;;;;;;;;;;;28.90;30.40;;;;;;5451176;26;19998;-75
2024/04/14 12:36:14;;;;;;;;;;;28.90;30.10;;;;;;5451083;26;20473;-75
2024/04/14 12:38:39;;;;;;;;;;;28.90;30.20;;;;;;5451064;26;20499;-74
2024/04/14 12:41:05;;;;;;;;;;;28.80;31.20;;;;;;5448665;26;20617;-74
2024/04/14 12:43:31;;;;;;;;;;;28.90;30.80;;;;;;5450969;26;19924;-74
2024/04/14 12:45:57;;;;;;;;;;;28.90;31.50;;;;;;5449146;26;20373;-74
2024/04/14 12:48:22;;;;;;;;;;;28.90;31.40;;;;;;5449046;26;19932;-75
2024/04/14 12:50:49;;;;;;;;;;;28.80;30.90;;;;;;5451135;26;20258;-74
2024/04/14 12:53:15;;;;;;;;;;;28.70;32.10;;;;;;5450881;26;20261;-75
2024/04/14 12:55:41;;;;;;;;;;;28.60;31.70;;;;;;5450848;26;19997;-75
2024/04/14 12:58:07;;;;;;;;;;;28.70;32.40;;;;;;5450725;26;19925;-74
2024/04/14 13:00:33;;;;;;;;;;;28.60;31.30;;;;;;5449114;26;19965;-75
2024/04/14 13:02:58;;;;;;;;;;;28.40;31.00;;;;;;5450895;26;19985;-74
2024/04/14 13:05:24;;;;;;;;;;;28.40;31.10;;;;;;5450897;26;19960;-74
2024/04/14 13:07:49;;;;;;;;;;;28.30;31.40;;;;;;5449006;26;19924;-74
2024/04/14 13:10:16;;;;;;;;;;;28.20;31.50;;;;;;5448925;26;19931;-76
2024/04/14 13:12:42;;;;;;;;;;;28.20;32.30;;;;;;5448714;26;19924;-75
2024/04/14 13:15:07;;;;;;;;;;;28.10;31.80;;;;;;5450256;26;19924;-75
2024/04/14 13:17:35;;;;;;;;;;;28.10;32.10;;;;;;5450413;26;19932;-74
2024/04/14 13:20:01;;;;;;;;;;;28.10;31.90;;;;;;5448943;26;19966;-75
2024/04/14 13:22:27;;;;;;;;;;;28.20;32.50;;;;;;5450404;26;20295;-74
2024/04/14 13:24:52;;;;;;;;;;;28.20;31.90;;;;;;5450535;26;19944;-75
2024/04/14 13:27:18;;;;;;;;;;;28.30;31.20;;;;;;5450443;26;19931;-75
2024/04/14 13:29:43;;;;;;;;;;;28.30;31.60;;;;;;5450496;26;19964;-75
2024/04/14 13:32:09;;;;;;;;;;;28.30;31.20;;;;;;5450115;26;19924;-75
2024/04/14 13:34:34;;;;;;;;;;;28.40;31.60;;;;;;5448275;26;19925;-75
2024/04/14 13:37:00;;;;;;;;;;;28.50;30.80;;;;;;5450353;26;20322;-73
2024/04/14 13:39:26;;;;;;;;;;;28.50;31.70;;;;;;5450612;26;19924;-74
2024/04/14 13:41:51;;;;;;;;;;;28.60;31.50;;;;;;5450457;26;20470;-74
2024/04/14 13:44:17;;;;;;;;;;;28.60;31.40;;;;;;5450048;26;20369;-75
2024/04/14 13:46:42;;;;;;;;;;;28.70;32.30;;;;;;5448520;26;20307;-75
2024/04/14 13:49:09;;;;;;;;;;;28.70;32.60;;;;;;5450186;26;20376;-74
2024/04/14 13:51:34;;;;;;;;;;;28.80;33.30;;;;;;5450487;26;19928;-74
2024/04/14 13:54:00;;;;;;;;;;;28.80;31.90;;;;;;5450215;26;20338;-74
2024/04/14 13:56:25;;;;;;;;;;;28.80;31.00;;;;;;5450192;26;19969;-74
2024/04/14 13:58:51;;;;;;;;;;;28.80;31.20;;;;;;5448216;26;19960;-75
2024/04/14 14:01:16;;;;;;;;;;;28.90;32.00;;;;;;5448116;26;19924;-74
2024/04/14 14:03:42;;;;;;;;;;;29.00;32.00;;;;;;5448052;26;20513;-74